sensor_id;sensor_type;location;lat;lon;timestamp;P1;durP1;ratioP1;P2;durP2;ratioP2
71610;SDS011;59459;51.172;6.682;2023-12-22T00:01:38;3.87;;;0.60;;
71610;SDS011;59459;51.172;6.682;2023-12-22T00:04:03;5.63;;;0.83;;
71610;SDS011;59459;51.172;6.682;2023-12-22T00:06:31;6.43;;;0.70;;
71610;SDS011;59459;51.172;6.682;2023-12-22T00:08:57;3.33;;;0.57;;
71610;SDS011;59459;51.172;6.682;2023-12-22T00:11:22;4.20;;;0.77;;
71610;SDS011;59459;51.172;6.682;2023-12-22T00:13:47;4.73;;;0.80;;
71610;SDS011;59459;51.172;6.682;2023-12-22T00:16:12;6.07;;;0.53;;
71610;SDS011;59459;51.172;6.682;2023-12-22T00:18:37;2.63;;;0.60;;
71610;SDS011;59459;51.172;6.682;2023-12-22T00:21:03;5.80;;;0.53;;
71610;SDS011;59459;51.172;6.682;2023-12-22T00:23:28;4.13;;;0.60;;
71610;SDS011;59459;51.172;6.682;2023-12-22T00:25:53;5.27;;;0.80;;
71610;SDS011;59459;51.172;6.682;2023-12-22T00:28:18;3.07;;;0.50;;
71610;SDS011;59459;51.172;6.682;2023-12-22T00:30:44;2.73;;;0.70;;
71610;SDS011;59459;51.172;6.682;2023-12-22T00:33:09;6.30;;;0.77;;
71610;SDS011;59459;51.172;6.682;2023-12-22T00:35:34;3.58;;;0.40;;
71610;SDS011;59459;51.172;6.682;2023-12-22T00:38:00;5.13;;;0.77;;
71610;SDS011;59459;51.172;6.682;2023-12-22T00:40:26;5.07;;;0.50;;
71610;SDS011;59459;51.172;6.682;2023-12-22T00:42:51;4.97;;;0.53;;
71610;SDS011;59459;51.172;6.682;2023-12-22T00:45:16;5.10;;;0.97;;
71610;SDS011;59459;51.172;6.682;2023-12-22T00:47:41;5.23;;;0.83;;
71610;SDS011;59459;51.172;6.682;2023-12-22T00:50:06;3.57;;;0.77;;
71610;SDS011;59459;51.172;6.682;2023-12-22T00:52:33;5.65;;;1.08;;
71610;SDS011;59459;51.172;6.682;2023-12-22T00:54:58;4.27;;;0.63;;
71610;SDS011;59459;51.172;6.682;2023-12-22T00:57:23;10.07;;;0.87;;
71610;SDS011;59459;51.172;6.682;2023-12-22T00:59:48;7.23;;;0.90;;
71610;SDS011;59459;51.172;6.682;2023-12-22T01:02:17;2.43;;;0.70;;
71610;SDS011;59459;51.172;6.682;2023-12-22T01:04:42;6.03;;;0.65;;
71610;SDS011;59459;51.172;6.682;2023-12-22T01:07:08;3.90;;;0.70;;
71610;SDS011;59459;51.172;6.682;2023-12-22T01:09:33;4.75;;;0.68;;
71610;SDS011;59459;51.172;6.682;2023-12-22T01:11:59;7.27;;;0.97;;
71610;SDS011;59459;51.172;6.682;2023-12-22T01:14:24;5.40;;;0.87;;
71610;SDS011;59459;51.172;6.682;2023-12-22T01:16:49;4.70;;;0.80;;
71610;SDS011;59459;51.172;6.682;2023-12-22T01:19:14;3.67;;;0.60;;
71610;SDS011;59459;51.172;6.682;2023-12-22T01:21:39;4.43;;;0.70;;
71610;SDS011;59459;51.172;6.682;2023-12-22T01:24:05;8.10;;;1.20;;
71610;SDS011;59459;51.172;6.682;2023-12-22T01:26:30;3.13;;;0.40;;
71610;SDS011;59459;51.172;6.682;2023-12-22T01:28:55;5.83;;;0.87;;
71610;SDS011;59459;51.172;6.682;2023-12-22T01:31:20;1.23;;;0.40;;
71610;SDS011;59459;51.172;6.682;2023-12-22T01:33:46;4.03;;;0.77;;
71610;SDS011;59459;51.172;6.682;2023-12-22T01:36:11;5.13;;;0.57;;
71610;SDS011;59459;51.172;6.682;2023-12-22T01:38:36;6.10;;;0.70;;
71610;SDS011;59459;51.172;6.682;2023-12-22T01:41:01;8.57;;;0.97;;
71610;SDS011;59459;51.172;6.682;2023-12-22T01:43:26;3.53;;;0.90;;
71610;SDS011;59459;51.172;6.682;2023-12-22T01:45:52;6.83;;;1.03;;
71610;SDS011;59459;51.172;6.682;2023-12-22T01:48:20;8.15;;;0.80;;
71610;SDS011;59459;51.172;6.682;2023-12-22T01:50:46;4.00;;;1.38;;
71610;SDS011;59459;51.172;6.682;2023-12-22T01:53:11;5.57;;;0.97;;
71610;SDS011;59459;51.172;6.682;2023-12-22T01:55:38;12.32;;;1.48;;
71610;SDS011;59459;51.172;6.682;2023-12-22T01:58:03;9.60;;;1.83;;
71610;SDS011;59459;51.172;6.682;2023-12-22T02:00:29;6.72;;;1.25;;
71610;SDS011;59459;51.172;6.682;2023-12-22T02:02:54;5.57;;;0.93;;
71610;SDS011;59459;51.172;6.682;2023-12-22T02:05:19;7.80;;;0.90;;
71610;SDS011;59459;51.172;6.682;2023-12-22T02:07:45;6.00;;;1.20;;
71610;SDS011;59459;51.172;6.682;2023-12-22T02:10:10;12.23;;;1.37;;
71610;SDS011;59459;51.172;6.682;2023-12-22T02:12:38;5.80;;;1.03;;
71610;SDS011;59459;51.172;6.682;2023-12-22T02:15:04;5.13;;;0.65;;
71610;SDS011;59459;51.172;6.682;2023-12-22T02:17:44;4.78;;;0.52;;
71610;SDS011;59459;51.172;6.682;2023-12-22T02:20:11;6.40;;;0.88;;
71610;SDS011;59459;51.172;6.682;2023-12-22T02:22:37;8.80;;;0.80;;
71610;SDS011;59459;51.172;6.682;2023-12-22T02:25:02;4.93;;;0.90;;
71610;SDS011;59459;51.172;6.682;2023-12-22T02:32:27;5.45;;;1.15;;
71610;SDS011;59459;51.172;6.682;2023-12-22T02:34:55;12.77;;;1.85;;
71610;SDS011;59459;51.172;6.682;2023-12-22T02:37:21;7.88;;;0.90;;
71610;SDS011;59459;51.172;6.682;2023-12-22T02:39:47;5.67;;;0.80;;
71610;SDS011;59459;51.172;6.682;2023-12-22T02:42:12;12.32;;;1.00;;
71610;SDS011;59459;51.172;6.682;2023-12-22T02:44:38;6.13;;;1.63;;
71610;SDS011;59459;51.172;6.682;2023-12-22T02:47:03;6.53;;;1.00;;
71610;SDS011;59459;51.172;6.682;2023-12-22T02:49:28;5.97;;;1.30;;
71610;SDS011;59459;51.172;6.682;2023-12-22T02:51:53;7.37;;;0.83;;
71610;SDS011;59459;51.172;6.682;2023-12-22T02:54:18;6.10;;;0.97;;
71610;SDS011;59459;51.172;6.682;2023-12-22T02:56:45;4.03;;;0.83;;
71610;SDS011;59459;51.172;6.682;2023-12-22T02:59:10;4.03;;;0.77;;
71610;SDS011;59459;51.172;6.682;2023-12-22T03:01:35;5.47;;;0.90;;
71610;SDS011;59459;51.172;6.682;2023-12-22T03:04:01;7.80;;;0.80;;
71610;SDS011;59459;51.172;6.682;2023-12-22T03:06:26;5.53;;;0.83;;
71610;SDS011;59459;51.172;6.682;2023-12-22T03:08:51;8.07;;;0.70;;
71610;SDS011;59459;51.172;6.682;2023-12-22T03:11:16;9.83;;;1.37;;
71610;SDS011;59459;51.172;6.682;2023-12-22T03:13:41;4.27;;;1.23;;
71610;SDS011;59459;51.172;6.682;2023-12-22T03:16:09;5.13;;;1.17;;
71610;SDS011;59459;51.172;6.682;2023-12-22T03:18:35;11.68;;;1.20;;
71610;SDS011;59459;51.172;6.682;2023-12-22T03:21:02;8.37;;;1.13;;
71610;SDS011;59459;51.172;6.682;2023-12-22T03:23:27;11.77;;;1.30;;
71610;SDS011;59459;51.172;6.682;2023-12-22T03:25:52;8.17;;;0.80;;
71610;SDS011;59459;51.172;6.682;2023-12-22T03:28:17;9.30;;;1.77;;
71610;SDS011;59459;51.172;6.682;2023-12-22T03:30:43;8.50;;;1.20;;
71610;SDS011;59459;51.172;6.682;2023-12-22T03:33:08;10.23;;;0.97;;
71610;SDS011;59459;51.172;6.682;2023-12-22T03:35:33;5.50;;;1.23;;
71610;SDS011;59459;51.172;6.682;2023-12-22T03:37:59;9.23;;;1.40;;
71610;SDS011;59459;51.172;6.682;2023-12-22T03:40:24;9.83;;;1.27;;
71610;SDS011;59459;51.172;6.682;2023-12-22T03:42:49;5.83;;;1.13;;
71610;SDS011;59459;51.172;6.682;2023-12-22T03:45:14;7.63;;;1.10;;
71610;SDS011;59459;51.172;6.682;2023-12-22T03:47:39;10.10;;;1.50;;
71610;SDS011;59459;51.172;6.682;2023-12-22T03:50:05;10.60;;;1.03;;
71610;SDS011;59459;51.172;6.682;2023-12-22T03:52:30;10.73;;;1.38;;
71610;SDS011;59459;51.172;6.682;2023-12-22T03:54:56;9.40;;;1.20;;
71610;SDS011;59459;51.172;6.682;2023-12-22T03:57:21;8.63;;;1.07;;
71610;SDS011;59459;51.172;6.682;2023-12-22T03:59:46;10.33;;;1.40;;
71610;SDS011;59459;51.172;6.682;2023-12-22T04:02:11;11.57;;;1.30;;
71610;SDS011;59459;51.172;6.682;2023-12-22T04:04:39;10.33;;;1.50;;
71610;SDS011;59459;51.172;6.682;2023-12-22T04:07:05;9.13;;;1.23;;
71610;SDS011;59459;51.172;6.682;2023-12-22T04:09:30;5.80;;;1.00;;
71610;SDS011;59459;51.172;6.682;2023-12-22T04:11:55;7.33;;;1.00;;
71610;SDS011;59459;51.172;6.682;2023-12-22T04:14:20;7.73;;;1.47;;
71610;SDS011;59459;51.172;6.682;2023-12-22T04:16:45;12.03;;;1.90;;
71610;SDS011;59459;51.172;6.682;2023-12-22T04:19:11;5.40;;;0.70;;
71610;SDS011;59459;51.172;6.682;2023-12-22T04:21:36;7.83;;;0.80;;
71610;SDS011;59459;51.172;6.682;2023-12-22T04:24:01;10.73;;;1.43;;
71610;SDS011;59459;51.172;6.682;2023-12-22T04:26:26;8.37;;;1.00;;
71610;SDS011;59459;51.172;6.682;2023-12-22T04:28:52;9.43;;;1.53;;
71610;SDS011;59459;51.172;6.682;2023-12-22T04:31:17;6.87;;;0.90;;
71610;SDS011;59459;51.172;6.682;2023-12-22T04:33:42;6.50;;;0.83;;
71610;SDS011;59459;51.172;6.682;2023-12-22T04:36:07;8.80;;;1.03;;
71610;SDS011;59459;51.172;6.682;2023-12-22T04:38:32;9.33;;;0.73;;
71610;SDS011;59459;51.172;6.682;2023-12-22T04:40:58;5.97;;;1.00;;
71610;SDS011;59459;51.172;6.682;2023-12-22T04:43:23;11.97;;;1.40;;
71610;SDS011;59459;51.172;6.682;2023-12-22T04:45:48;9.87;;;2.10;;
71610;SDS011;59459;51.172;6.682;2023-12-22T04:48:13;9.13;;;0.90;;
71610;SDS011;59459;51.172;6.682;2023-12-22T04:50:39;13.00;;;2.07;;
71610;SDS011;59459;51.172;6.682;2023-12-22T04:53:04;8.97;;;1.43;;
71610;SDS011;59459;51.172;6.682;2023-12-22T04:55:29;9.63;;;1.70;;
71610;SDS011;59459;51.172;6.682;2023-12-22T04:57:54;9.53;;;1.53;;
71610;SDS011;59459;51.172;6.682;2023-12-22T05:00:19;10.20;;;1.43;;
71610;SDS011;59459;51.172;6.682;2023-12-22T05:02:44;13.80;;;1.47;;
71610;SDS011;59459;51.172;6.682;2023-12-22T05:05:10;5.63;;;1.00;;
71610;SDS011;59459;51.172;6.682;2023-12-22T05:07:36;8.90;;;1.40;;
71610;SDS011;59459;51.172;6.682;2023-12-22T05:10:01;10.30;;;1.10;;
71610;SDS011;59459;51.172;6.682;2023-12-22T05:12:28;5.37;;;0.80;;
71610;SDS011;59459;51.172;6.682;2023-12-22T05:14:53;10.10;;;1.37;;
71610;SDS011;59459;51.172;6.682;2023-12-22T05:17:19;12.50;;;1.10;;
71610;SDS011;59459;51.172;6.682;2023-12-22T05:19:44;7.20;;;1.20;;
71610;SDS011;59459;51.172;6.682;2023-12-22T05:22:09;11.27;;;2.07;;
71610;SDS011;59459;51.172;6.682;2023-12-22T05:24:36;10.67;;;1.87;;
71610;SDS011;59459;51.172;6.682;2023-12-22T05:27:01;8.57;;;1.48;;
71610;SDS011;59459;51.172;6.682;2023-12-22T05:29:27;11.33;;;1.70;;
71610;SDS011;59459;51.172;6.682;2023-12-22T05:31:52;11.80;;;2.90;;
71610;SDS011;59459;51.172;6.682;2023-12-22T05:34:17;13.20;;;3.73;;
71610;SDS011;59459;51.172;6.682;2023-12-22T05:36:42;25.30;;;6.30;;
71610;SDS011;59459;51.172;6.682;2023-12-22T05:39:07;31.70;;;11.37;;
71610;SDS011;59459;51.172;6.682;2023-12-22T05:41:34;39.83;;;16.05;;
71610;SDS011;59459;51.172;6.682;2023-12-22T05:44:01;57.13;;;24.08;;
71610;SDS011;59459;51.172;6.682;2023-12-22T05:46:26;72.63;;;26.83;;
71610;SDS011;59459;51.172;6.682;2023-12-22T05:48:52;69.10;;;31.10;;
71610;SDS011;59459;51.172;6.682;2023-12-22T05:51:17;95.60;;;38.80;;
71610;SDS011;59459;51.172;6.682;2023-12-22T05:53:42;102.73;;;42.17;;
71610;SDS011;59459;51.172;6.682;2023-12-22T05:56:17;121.77;;;45.97;;
71610;SDS011;59459;51.172;6.682;2023-12-22T05:58:43;119.78;;;47.55;;
71610;SDS011;59459;51.172;6.682;2023-12-22T06:01:13;81.37;;;31.00;;
71610;SDS011;59459;51.172;6.682;2023-12-22T06:03:38;72.93;;;30.60;;
71610;SDS011;59459;51.172;6.682;2023-12-22T06:06:03;62.73;;;25.63;;
71610;SDS011;59459;51.172;6.682;2023-12-22T06:08:29;37.40;;;13.97;;
71610;SDS011;59459;51.172;6.682;2023-12-22T06:10:54;42.03;;;16.33;;
71610;SDS011;59459;51.172;6.682;2023-12-22T06:13:19;54.93;;;21.43;;
71610;SDS011;59459;51.172;6.682;2023-12-22T06:15:44;90.37;;;37.97;;
71610;SDS011;59459;51.172;6.682;2023-12-22T06:18:10;71.97;;;33.47;;
71610;SDS011;59459;51.172;6.682;2023-12-22T06:20:35;102.43;;;45.40;;
71610;SDS011;59459;51.172;6.682;2023-12-22T06:23:00;96.30;;;45.33;;
71610;SDS011;59459;51.172;6.682;2023-12-22T06:25:25;94.57;;;43.93;;
71610;SDS011;59459;51.172;6.682;2023-12-22T06:27:50;96.80;;;44.10;;
71610;SDS011;59459;51.172;6.682;2023-12-22T06:30:16;81.03;;;38.00;;
71610;SDS011;59459;51.172;6.682;2023-12-22T06:32:41;73.90;;;36.57;;
71610;SDS011;59459;51.172;6.682;2023-12-22T06:35:07;61.33;;;27.97;;
71610;SDS011;59459;51.172;6.682;2023-12-22T06:37:32;42.83;;;17.90;;
71610;SDS011;59459;51.172;6.682;2023-12-22T06:39:57;25.57;;;9.50;;
71610;SDS011;59459;51.172;6.682;2023-12-22T06:42:23;14.90;;;5.25;;
71610;SDS011;59459;51.172;6.682;2023-12-22T06:44:48;12.43;;;2.80;;
71610;SDS011;59459;51.172;6.682;2023-12-22T06:47:14;14.48;;;4.43;;
71610;SDS011;59459;51.172;6.682;2023-12-22T06:49:39;15.77;;;5.43;;
71610;SDS011;59459;51.172;6.682;2023-12-22T06:52:04;12.93;;;4.00;;
71610;SDS011;59459;51.172;6.682;2023-12-22T06:54:29;9.40;;;2.10;;
71610;SDS011;59459;51.172;6.682;2023-12-22T06:56:55;6.93;;;1.13;;
71610;SDS011;59459;51.172;6.682;2023-12-22T06:59:20;9.33;;;1.07;;
71610;SDS011;59459;51.172;6.682;2023-12-22T07:01:45;6.47;;;1.00;;
71610;SDS011;59459;51.172;6.682;2023-12-22T07:04:10;8.03;;;1.00;;
71610;SDS011;59459;51.172;6.682;2023-12-22T07:06:36;10.03;;;2.00;;
71610;SDS011;59459;51.172;6.682;2023-12-22T07:11:35;24.38;;;7.68;;
71610;SDS011;59459;51.172;6.682;2023-12-22T07:14:00;31.50;;;12.63;;
71610;SDS011;59459;51.172;6.682;2023-12-22T07:16:25;27.90;;;10.77;;
71610;SDS011;59459;51.172;6.682;2023-12-22T07:18:51;9.97;;;3.00;;
71610;SDS011;59459;51.172;6.682;2023-12-22T07:21:16;15.17;;;3.97;;
71610;SDS011;59459;51.172;6.682;2023-12-22T07:23:42;11.38;;;2.75;;
71610;SDS011;59459;51.172;6.682;2023-12-22T07:26:09;6.57;;;1.75;;
71610;SDS011;59459;51.172;6.682;2023-12-22T07:28:34;8.07;;;1.20;;
71610;SDS011;59459;51.172;6.682;2023-12-22T07:30:59;7.70;;;1.07;;
71610;SDS011;59459;51.172;6.682;2023-12-22T07:33:24;4.33;;;1.07;;
71610;SDS011;59459;51.172;6.682;2023-12-22T07:35:50;5.77;;;0.93;;
71610;SDS011;59459;51.172;6.682;2023-12-22T07:38:15;4.37;;;0.97;;
71610;SDS011;59459;51.172;6.682;2023-12-22T07:40:40;5.77;;;1.60;;
71610;SDS011;59459;51.172;6.682;2023-12-22T07:43:05;5.63;;;0.97;;
71610;SDS011;59459;51.172;6.682;2023-12-22T07:45:30;12.37;;;2.03;;
71610;SDS011;59459;51.172;6.682;2023-12-22T07:47:56;11.57;;;1.90;;
71610;SDS011;59459;51.172;6.682;2023-12-22T07:50:21;14.73;;;2.77;;
71610;SDS011;59459;51.172;6.682;2023-12-22T07:52:46;9.63;;;2.83;;
71610;SDS011;59459;51.172;6.682;2023-12-22T07:55:11;11.83;;;3.00;;
71610;SDS011;59459;51.172;6.682;2023-12-22T07:57:37;21.87;;;4.00;;
71610;SDS011;59459;51.172;6.682;2023-12-22T08:00:02;15.20;;;4.72;;
71610;SDS011;59459;51.172;6.682;2023-12-22T08:02:28;21.73;;;4.47;;
71610;SDS011;59459;51.172;6.682;2023-12-22T08:04:53;17.70;;;3.27;;
71610;SDS011;59459;51.172;6.682;2023-12-22T08:07:19;19.30;;;3.43;;
71610;SDS011;59459;51.172;6.682;2023-12-22T08:09:44;17.13;;;2.63;;
71610;SDS011;59459;51.172;6.682;2023-12-22T08:12:09;19.50;;;2.30;;
71610;SDS011;59459;51.172;6.682;2023-12-22T08:14:34;19.40;;;2.47;;
71610;SDS011;59459;51.172;6.682;2023-12-22T08:17:00;15.53;;;2.37;;
71610;SDS011;59459;51.172;6.682;2023-12-22T08:19:25;16.97;;;2.90;;
71610;SDS011;59459;51.172;6.682;2023-12-22T08:21:52;15.17;;;3.80;;
71610;SDS011;59459;51.172;6.682;2023-12-22T08:24:17;18.25;;;2.20;;
71610;SDS011;59459;51.172;6.682;2023-12-22T08:26:42;17.60;;;3.60;;
71610;SDS011;59459;51.172;6.682;2023-12-22T08:29:07;23.47;;;3.50;;
71610;SDS011;59459;51.172;6.682;2023-12-22T08:31:33;16.97;;;3.10;;
71610;SDS011;59459;51.172;6.682;2023-12-22T08:33:58;18.57;;;2.53;;
71610;SDS011;59459;51.172;6.682;2023-12-22T08:36:23;14.63;;;2.83;;
71610;SDS011;59459;51.172;6.682;2023-12-22T08:38:49;16.03;;;2.13;;
71610;SDS011;59459;51.172;6.682;2023-12-22T08:41:14;15.47;;;2.13;;
71610;SDS011;59459;51.172;6.682;2023-12-22T08:43:39;16.35;;;2.88;;
71610;SDS011;59459;51.172;6.682;2023-12-22T08:46:05;21.30;;;3.10;;
71610;SDS011;59459;51.172;6.682;2023-12-22T08:48:30;21.47;;;4.20;;
71610;SDS011;59459;51.172;6.682;2023-12-22T08:50:55;18.73;;;3.50;;
71610;SDS011;59459;51.172;6.682;2023-12-22T08:53:20;21.90;;;2.90;;
71610;SDS011;59459;51.172;6.682;2023-12-22T08:55:45;20.63;;;3.63;;
71610;SDS011;59459;51.172;6.682;2023-12-22T08:58:11;15.87;;;4.10;;
71610;SDS011;59459;51.172;6.682;2023-12-22T09:00:36;12.47;;;3.33;;
71610;SDS011;59459;51.172;6.682;2023-12-22T09:03:01;19.90;;;3.27;;
71610;SDS011;59459;51.172;6.682;2023-12-22T09:05:27;11.98;;;3.38;;
71610;SDS011;59459;51.172;6.682;2023-12-22T09:07:52;18.97;;;2.93;;
71610;SDS011;59459;51.172;6.682;2023-12-22T09:10:17;14.20;;;2.57;;
71610;SDS011;59459;51.172;6.682;2023-12-22T09:12:44;21.63;;;4.70;;
71610;SDS011;59459;51.172;6.682;2023-12-22T09:15:09;12.73;;;2.53;;
71610;SDS011;59459;51.172;6.682;2023-12-22T09:17:34;21.53;;;3.77;;
71610;SDS011;59459;51.172;6.682;2023-12-22T09:19:59;14.17;;;4.10;;
71610;SDS011;59459;51.172;6.682;2023-12-22T09:22:25;16.63;;;2.77;;
71610;SDS011;59459;51.172;6.682;2023-12-22T09:24:50;23.87;;;3.73;;
71610;SDS011;59459;51.172;6.682;2023-12-22T09:27:15;15.03;;;3.27;;
71610;SDS011;59459;51.172;6.682;2023-12-22T09:29:40;17.03;;;2.53;;
71610;SDS011;59459;51.172;6.682;2023-12-22T09:32:05;23.03;;;3.13;;
71610;SDS011;59459;51.172;6.682;2023-12-22T09:34:31;23.52;;;2.85;;
71610;SDS011;59459;51.172;6.682;2023-12-22T09:36:56;24.30;;;3.27;;
71610;SDS011;59459;51.172;6.682;2023-12-22T09:39:22;19.00;;;3.87;;
71610;SDS011;59459;51.172;6.682;2023-12-22T09:41:48;12.67;;;1.97;;
71610;SDS011;59459;51.172;6.682;2023-12-22T09:44:18;21.70;;;3.78;;
71610;SDS011;59459;51.172;6.682;2023-12-22T09:46:43;16.23;;;2.50;;
71610;SDS011;59459;51.172;6.682;2023-12-22T09:49:09;16.25;;;2.65;;
71610;SDS011;59459;51.172;6.682;2023-12-22T09:51:34;16.37;;;2.90;;
71610;SDS011;59459;51.172;6.682;2023-12-22T09:54:01;19.50;;;3.45;;
71610;SDS011;59459;51.172;6.682;2023-12-22T09:56:27;11.90;;;2.60;;
71610;SDS011;59459;51.172;6.682;2023-12-22T09:58:54;15.68;;;3.03;;
71610;SDS011;59459;51.172;6.682;2023-12-22T10:01:20;12.60;;;2.77;;
71610;SDS011;59459;51.172;6.682;2023-12-22T10:03:47;16.33;;;2.85;;
71610;SDS011;59459;51.172;6.682;2023-12-22T10:06:12;15.97;;;2.77;;
71610;SDS011;59459;51.172;6.682;2023-12-22T10:08:38;21.00;;;3.00;;
71610;SDS011;59459;51.172;6.682;2023-12-22T10:11:04;10.50;;;3.10;;
71610;SDS011;59459;51.172;6.682;2023-12-22T10:13:30;13.50;;;3.45;;
71610;SDS011;59459;51.172;6.682;2023-12-22T10:15:56;15.05;;;3.38;;
71610;SDS011;59459;51.172;6.682;2023-12-22T10:18:21;13.90;;;3.00;;
71610;SDS011;59459;51.172;6.682;2023-12-22T10:20:47;9.93;;;2.13;;
71610;SDS011;59459;51.172;6.682;2023-12-22T10:23:12;9.93;;;2.60;;
71610;SDS011;59459;51.172;6.682;2023-12-22T10:25:37;11.63;;;1.97;;
71610;SDS011;59459;51.172;6.682;2023-12-22T10:28:04;14.20;;;2.38;;
71610;SDS011;59459;51.172;6.682;2023-12-22T10:30:30;8.33;;;1.93;;
71610;SDS011;59459;51.172;6.682;2023-12-22T10:32:57;7.50;;;1.83;;
71610;SDS011;59459;51.172;6.682;2023-12-22T10:35:22;12.70;;;2.33;;
71610;SDS011;59459;51.172;6.682;2023-12-22T10:37:48;12.77;;;2.00;;
71610;SDS011;59459;51.172;6.682;2023-12-22T10:40:13;9.93;;;1.77;;
71610;SDS011;59459;51.172;6.682;2023-12-22T10:42:40;8.20;;;1.80;;
71610;SDS011;59459;51.172;6.682;2023-12-22T10:45:05;8.37;;;2.20;;
71610;SDS011;59459;51.172;6.682;2023-12-22T10:47:31;8.20;;;2.15;;
71610;SDS011;59459;51.172;6.682;2023-12-22T10:49:56;6.30;;;2.03;;
71610;SDS011;59459;51.172;6.682;2023-12-22T10:52:22;7.43;;;2.10;;
71610;SDS011;59459;51.172;6.682;2023-12-22T10:54:48;8.88;;;1.90;;
71610;SDS011;59459;51.172;6.682;2023-12-22T10:57:16;6.27;;;1.97;;
71610;SDS011;59459;51.172;6.682;2023-12-22T10:59:45;8.35;;;2.20;;
71610;SDS011;59459;51.172;6.682;2023-12-22T11:02:15;7.40;;;2.90;;
71610;SDS011;59459;51.172;6.682;2023-12-22T11:04:40;7.90;;;1.40;;
71610;SDS011;59459;51.172;6.682;2023-12-22T11:07:07;6.85;;;1.92;;
71610;SDS011;59459;51.172;6.682;2023-12-22T11:09:34;6.23;;;1.70;;
71610;SDS011;59459;51.172;6.682;2023-12-22T11:12:00;7.78;;;1.42;;
71610;SDS011;59459;51.172;6.682;2023-12-22T11:14:26;3.90;;;1.40;;
71610;SDS011;59459;51.172;6.682;2023-12-22T11:16:52;4.93;;;1.40;;
71610;SDS011;59459;51.172;6.682;2023-12-22T11:19:18;6.90;;;2.33;;
71610;SDS011;59459;51.172;6.682;2023-12-22T11:21:44;6.53;;;1.90;;
71610;SDS011;59459;51.172;6.682;2023-12-22T11:24:10;6.25;;;1.75;;
71610;SDS011;59459;51.172;6.682;2023-12-22T11:26:35;3.63;;;1.35;;
71610;SDS011;59459;51.172;6.682;2023-12-22T11:29:02;5.77;;;1.60;;
71610;SDS011;59459;51.172;6.682;2023-12-22T11:31:27;7.10;;;1.50;;
71610;SDS011;59459;51.172;6.682;2023-12-22T11:33:56;8.83;;;1.23;;
71610;SDS011;59459;51.172;6.682;2023-12-22T11:36:21;5.28;;;1.30;;
71610;SDS011;59459;51.172;6.682;2023-12-22T11:38:47;5.15;;;1.13;;
71610;SDS011;59459;51.172;6.682;2023-12-22T11:41:24;4.10;;;0.90;;
71610;SDS011;59459;51.172;6.682;2023-12-22T11:43:50;4.05;;;0.98;;
71610;SDS011;59459;51.172;6.682;2023-12-22T11:46:16;3.43;;;1.20;;
71610;SDS011;59459;51.172;6.682;2023-12-22T11:48:48;6.30;;;1.48;;
71610;SDS011;59459;51.172;6.682;2023-12-22T11:51:14;5.78;;;1.10;;
71610;SDS011;59459;51.172;6.682;2023-12-22T11:53:40;3.10;;;0.90;;
71610;SDS011;59459;51.172;6.682;2023-12-22T11:56:05;5.23;;;1.10;;
71610;SDS011;59459;51.172;6.682;2023-12-22T11:58:48;3.87;;;1.00;;
71610;SDS011;59459;51.172;6.682;2023-12-22T12:01:17;5.78;;;1.63;;
71610;SDS011;59459;51.172;6.682;2023-12-22T12:03:53;5.88;;;1.10;;
71610;SDS011;59459;51.172;6.682;2023-12-22T12:08:46;5.33;;;1.07;;
71610;SDS011;59459;51.172;6.682;2023-12-22T12:11:13;6.47;;;0.80;;
71610;SDS011;59459;51.172;6.682;2023-12-22T12:13:41;2.53;;;0.80;;
71610;SDS011;59459;51.172;6.682;2023-12-22T12:16:06;2.22;;;0.80;;
71610;SDS011;59459;51.172;6.682;2023-12-22T12:18:31;4.07;;;0.60;;
71610;SDS011;59459;51.172;6.682;2023-12-22T12:20:58;6.00;;;1.00;;
71610;SDS011;59459;51.172;6.682;2023-12-22T12:23:24;4.43;;;1.00;;
71610;SDS011;59459;51.172;6.682;2023-12-22T12:25:49;4.55;;;0.90;;
71610;SDS011;59459;51.172;6.682;2023-12-22T12:28:14;4.97;;;0.90;;
71610;SDS011;59459;51.172;6.682;2023-12-22T12:30:43;2.35;;;0.75;;
71610;SDS011;59459;51.172;6.682;2023-12-22T12:33:08;5.00;;;0.93;;
71610;SDS011;59459;51.172;6.682;2023-12-22T12:35:34;2.60;;;0.83;;
71610;SDS011;59459;51.172;6.682;2023-12-22T12:38:00;7.80;;;0.90;;
71610;SDS011;59459;51.172;6.682;2023-12-22T12:40:25;5.03;;;0.90;;
71610;SDS011;59459;51.172;6.682;2023-12-22T12:42:54;7.55;;;2.40;;
71610;SDS011;59459;51.172;6.682;2023-12-22T12:45:22;5.93;;;1.73;;
71610;SDS011;59459;51.172;6.682;2023-12-22T12:47:58;2.03;;;0.70;;
71610;SDS011;59459;51.172;6.682;2023-12-22T12:50:23;3.97;;;0.90;;
71610;SDS011;59459;51.172;6.682;2023-12-22T12:52:49;2.85;;;0.80;;
71610;SDS011;59459;51.172;6.682;2023-12-22T12:55:16;2.90;;;0.80;;
71610;SDS011;59459;51.172;6.682;2023-12-22T12:57:43;2.95;;;0.65;;
71610;SDS011;59459;51.172;6.682;2023-12-22T13:00:08;4.73;;;0.90;;
71610;SDS011;59459;51.172;6.682;2023-12-22T13:02:34;1.83;;;0.60;;
71610;SDS011;59459;51.172;6.682;2023-12-22T13:05:00;4.85;;;0.80;;
71610;SDS011;59459;51.172;6.682;2023-12-22T13:07:29;3.63;;;1.08;;
71610;SDS011;59459;51.172;6.682;2023-12-22T13:09:55;2.95;;;0.60;;
71610;SDS011;59459;51.172;6.682;2023-12-22T13:12:22;5.10;;;0.80;;
71610;SDS011;59459;51.172;6.682;2023-12-22T13:14:47;3.07;;;0.60;;
71610;SDS011;59459;51.172;6.682;2023-12-22T13:17:12;4.30;;;0.70;;
71610;SDS011;59459;51.172;6.682;2023-12-22T13:19:37;2.93;;;0.87;;
71610;SDS011;59459;51.172;6.682;2023-12-22T13:22:03;3.10;;;0.57;;
71610;SDS011;59459;51.172;6.682;2023-12-22T13:24:28;4.30;;;0.73;;
71610;SDS011;59459;51.172;6.682;2023-12-22T13:27:03;5.27;;;0.60;;
71610;SDS011;59459;51.172;6.682;2023-12-22T13:29:41;6.75;;;0.90;;
71610;SDS011;59459;51.172;6.682;2023-12-22T13:32:06;3.20;;;0.70;;
71610;SDS011;59459;51.172;6.682;2023-12-22T13:34:31;3.60;;;0.70;;
71610;SDS011;59459;51.172;6.682;2023-12-22T13:36:58;6.05;;;0.90;;
71610;SDS011;59459;51.172;6.682;2023-12-22T13:39:25;5.23;;;0.50;;
71610;SDS011;59459;51.172;6.682;2023-12-22T13:41:51;3.47;;;0.70;;
71610;SDS011;59459;51.172;6.682;2023-12-22T13:44:17;3.67;;;0.70;;
71610;SDS011;59459;51.172;6.682;2023-12-22T13:46:42;3.33;;;0.53;;
71610;SDS011;59459;51.172;6.682;2023-12-22T13:49:08;4.63;;;0.60;;
71610;SDS011;59459;51.172;6.682;2023-12-22T13:51:40;3.30;;;0.75;;
71610;SDS011;59459;51.172;6.682;2023-12-22T13:54:06;3.87;;;0.57;;
71610;SDS011;59459;51.172;6.682;2023-12-22T13:56:34;4.17;;;0.70;;
71610;SDS011;59459;51.172;6.682;2023-12-22T13:59:00;3.53;;;0.70;;
71610;SDS011;59459;51.172;6.682;2023-12-22T14:01:25;2.53;;;0.70;;
71610;SDS011;59459;51.172;6.682;2023-12-22T14:03:51;5.77;;;0.80;;
71610;SDS011;59459;51.172;6.682;2023-12-22T14:06:16;4.37;;;0.67;;
71610;SDS011;59459;51.172;6.682;2023-12-22T14:08:41;6.60;;;1.70;;
71610;SDS011;59459;51.172;6.682;2023-12-22T14:11:07;2.40;;;0.93;;
71610;SDS011;59459;51.172;6.682;2023-12-22T14:13:32;5.47;;;1.07;;
71610;SDS011;59459;51.172;6.682;2023-12-22T14:15:58;4.47;;;0.63;;
71610;SDS011;59459;51.172;6.682;2023-12-22T14:18:23;2.63;;;0.80;;
71610;SDS011;59459;51.172;6.682;2023-12-22T14:20:48;4.63;;;0.93;;
71610;SDS011;59459;51.172;6.682;2023-12-22T14:23:14;2.63;;;0.57;;
71610;SDS011;59459;51.172;6.682;2023-12-22T14:25:42;4.40;;;0.63;;
71610;SDS011;59459;51.172;6.682;2023-12-22T14:28:08;4.60;;;0.73;;
71610;SDS011;59459;51.172;6.682;2023-12-22T14:30:33;4.17;;;0.90;;
71610;SDS011;59459;51.172;6.682;2023-12-22T14:32:59;4.53;;;0.70;;
71610;SDS011;59459;51.172;6.682;2023-12-22T14:35:24;4.03;;;0.90;;
71610;SDS011;59459;51.172;6.682;2023-12-22T14:37:49;5.47;;;1.10;;
71610;SDS011;59459;51.172;6.682;2023-12-22T14:40:14;6.17;;;1.17;;
71610;SDS011;59459;51.172;6.682;2023-12-22T14:42:40;9.00;;;1.37;;